Terminal Aerodrome Forecast
Issued by NWS Sioux Falls, SD

Home | Current Version | Previous Version | Text Only | Print | Product List | Glossary Off
Versions: 1 2 3 4 5 6 7 8 9 10 11 12 13 14 15 16 17 18 19 20 21 22 23 24 25 26

000
FTUS43 KFSD 222239 AAB
TAFFSD
TAF AMD
KFSD 222239Z 2223/2318 13006KT 1/2SM SN OVC008
     FM230200 16004KT 3SM -SN OVC008
     FM230600 VRB03KT P6SM OVC010
     FM231400 30007KT P6SM BKN035=

USA.gov is the U.S. government's official web portal to all federal, state and local government web resources and services.